Time;durP1;ratioP1;P1;durP2;ratioP2;P2;SDS_P1;SDS_P2;PMS_P1;PMS_P2;Temp;Humidity;BMP_temperature;BMP_pressure;BME280_temperature;BME280_humidity;BME280_pressure;Samples;Min_cycle;Max_cycle;Signal;HPM_P1;HPM_P2
2022/10/21 00:00:58;;;;;;;19.92;10.20;;;12.20;99.90;;;;;;4983630;28;20042;-41
2022/10/21 00:03:26;;;;;;;20.52;10.50;;;12.20;99.90;;;;;;4991978;28;20502;-42
2022/10/21 00:05:52;;;;;;;18.00;10.05;;;12.20;99.90;;;;;;4989501;28;20535;-43
2022/10/21 00:08:19;;;;;;;19.08;9.65;;;12.20;99.90;;;;;;4993201;28;20041;-39
2022/10/21 00:10:45;;;;;;;19.55;10.52;;;12.20;99.90;;;;;;4991147;28;20042;-49
2022/10/21 00:13:11;;;;;;;19.30;10.45;;;12.10;99.90;;;;;;4991972;28;20049;-40
2022/10/21 00:15:36;;;;;;;15.93;8.60;;;12.10;99.90;;;;;;4991621;28;20073;-41
2022/10/21 00:18:02;;;;;;;20.58;9.73;;;12.20;99.90;;;;;;4994326;28;20043;-41
2022/10/21 00:20:28;;;;;;;17.77;9.55;;;12.20;99.90;;;;;;4989180;28;20071;-40
2022/10/21 00:22:54;;;;;;;17.85;10.25;;;12.20;99.90;;;;;;4990288;28;20408;-43
2022/10/21 00:25:20;;;;;;;22.10;11.30;;;12.20;99.90;;;;;;4990219;28;20043;-39
2022/10/21 00:27:45;;;;;;;19.90;11.23;;;12.20;99.90;;;;;;4993328;28;20070;-41
2022/10/21 00:30:12;;;;;;;22.48;11.02;;;12.10;99.90;;;;;;4992785;28;20089;-43
2022/10/21 00:32:37;;;;;;;21.40;11.70;;;12.10;99.90;;;;;;4990745;28;20563;-39
2022/10/21 00:35:04;;;;;;;20.20;10.85;;;12.10;99.90;;;;;;4988464;28;20125;-40
2022/10/21 00:37:30;;;;;;;18.88;9.38;;;12.10;99.90;;;;;;4993593;28;20045;-43
2022/10/21 00:39:56;;;;;;;20.65;10.52;;;12.00;99.90;;;;;;4990211;28;20092;-41
2022/10/21 00:42:33;;;;;;;19.25;11.25;;;12.00;99.90;;;;;;4992687;28;20057;-43
2022/10/21 00:45:04;;;;;;;19.48;10.38;;;12.00;99.90;;;;;;4990094;28;20125;-42
2022/10/21 00:47:34;;;;;;;19.65;9.88;;;12.00;99.90;;;;;;4992381;28;20042;-42
2022/10/21 00:50:03;;;;;;;21.20;10.80;;;12.00;99.90;;;;;;4988891;28;20522;-41
2022/10/21 00:52:32;;;;;;;19.30;9.90;;;12.00;99.90;;;;;;4992928;28;20186;-40
2022/10/21 00:55:01;;;;;;;21.90;11.32;;;12.00;99.90;;;;;;4989763;28;20046;-46
2022/10/21 00:57:27;;;;;;;21.30;11.30;;;12.00;99.90;;;;;;4991973;28;20049;-41
2022/10/21 00:59:58;;;;;;;21.50;11.23;;;12.00;99.90;;;;;;4986694;28;20048;-41
2022/10/21 01:02:23;;;;;;;23.05;10.43;;;12.00;99.90;;;;;;4990362;28;20116;-43
2022/10/21 01:05:00;;;;;;;20.42;8.48;;;12.00;99.90;;;;;;4989436;28;20174;-40
2022/10/21 01:07:26;;;;;;;17.17;9.02;;;12.00;99.90;;;;;;4991075;28;20042;-40
2022/10/21 01:09:51;;;;;;;17.23;9.57;;;12.00;99.90;;;;;;4987071;28;20199;-40
2022/10/21 01:12:43;;;;;;;16.58;8.52;;;12.00;99.90;;;;;;4988593;28;20105;-44
2022/10/21 01:15:41;;;;;;;18.73;10.40;;;12.10;99.90;;;;;;4989495;28;20093;-40
2022/10/21 01:18:31;;;;;;;23.02;10.90;;;12.00;99.90;;;;;;4987459;28;20105;-42
2022/10/21 01:21:08;;;;;;;25.85;11.65;;;12.10;99.90;;;;;;4986547;28;20483;-40
2022/10/21 01:23:40;;;;;;;18.42;10.38;;;12.20;99.90;;;;;;4984936;28;20053;-42
2022/10/21 01:26:24;;;;;;;18.20;10.30;;;12.20;99.90;;;;;;4987286;28;20061;-40
2022/10/21 01:28:49;;;;;;;18.75;9.70;;;12.20;99.90;;;;;;4986969;28;20093;-39
2022/10/21 01:31:21;;;;;;;24.23;12.45;;;12.30;99.90;;;;;;4989796;28;20042;-42
2022/10/21 01:34:14;;;;;;;23.27;11.27;;;12.30;99.90;;;;;;4988629;28;20042;-42
2022/10/21 01:36:46;;;;;;;20.58;10.95;;;12.30;99.90;;;;;;4988381;28;20097;-48
2022/10/21 01:39:18;;;;;;;25.95;12.63;;;12.40;99.90;;;;;;4987442;28;20034;-42
2022/10/21 01:41:54;;;;;;;23.67;12.05;;;12.50;99.90;;;;;;4988474;28;20054;-40
2022/10/21 01:44:25;;;;;;;21.20;10.90;;;12.50;99.90;;;;;;4989646;28;20050;-41
2022/10/21 01:47:15;;;;;;;24.38;12.52;;;12.60;99.90;;;;;;4990493;28;20047;-40
2022/10/21 01:50:04;;;;;;;22.45;11.02;;;12.70;99.90;;;;;;4974543;28;20077;-39
2022/10/21 01:52:30;;;;;;;25.83;11.05;;;12.80;99.90;;;;;;4972393;28;20124;-41
2022/10/21 01:55:06;;;;;;;20.92;11.25;;;12.80;99.90;;;;;;4986612;28;20492;-40
2022/10/21 01:57:36;;;;;;;18.80;11.07;;;12.80;99.90;;;;;;4987737;28;20037;-47
2022/10/21 02:00:03;;;;;;;19.88;11.30;;;12.80;99.90;;;;;;4987864;28;20488;-52
2022/10/21 02:02:32;;;;;;;25.30;12.98;;;12.80;99.90;;;;;;4991432;28;20046;-43
2022/10/21 02:05:04;;;;;;;22.60;11.07;;;12.80;99.90;;;;;;4982551;28;20158;-42
2022/10/21 02:07:30;;;;;;;26.50;13.20;;;12.90;99.90;;;;;;4987416;28;20038;-42
2022/10/21 02:09:56;;;;;;;21.35;10.65;;;12.90;99.90;;;;;;4987120;28;20042;-40
2022/10/21 02:12:24;;;;;;;24.92;10.75;;;13.00;99.90;;;;;;4987723;28;20066;-45
2022/10/21 02:14:52;;;;;;;22.35;11.52;;;13.10;99.90;;;;;;4984079;28;20097;-42
2022/10/21 02:17:20;;;;;;;21.65;10.35;;;13.20;99.90;;;;;;4986235;28;20038;-42
2022/10/21 02:19:46;;;;;;;19.35;10.80;;;13.20;99.90;;;;;;4982199;28;20518;-44
2022/10/21 02:22:16;;;;;;;20.10;11.40;;;13.20;99.90;;;;;;4979163;28;20034;-44
2022/10/21 02:24:46;;;;;;;19.10;10.73;;;13.20;99.90;;;;;;4981421;28;20051;-42
2022/10/21 02:27:12;;;;;;;18.65;10.18;;;13.30;99.90;;;;;;4986504;28;20042;-41
2022/10/21 02:29:41;;;;;;;21.05;11.07;;;13.30;99.90;;;;;;4988017;28;20554;-41
2022/10/21 02:32:31;;;;;;;22.38;11.30;;;13.30;99.90;;;;;;4989327;28;20038;-42
2022/10/21 02:35:06;;;;;;;20.88;11.13;;;13.30;99.90;;;;;;4986385;28;20129;-40
2022/10/21 02:37:40;;;;;;;16.67;8.82;;;13.30;99.90;;;;;;4983373;28;20045;-41
2022/10/21 02:40:12;;;;;;;22.27;11.73;;;13.30;99.90;;;;;;4984545;28;20042;-40
2022/10/21 02:42:44;;;;;;;20.50;10.63;;;13.30;99.90;;;;;;4988021;28;20046;-41
2022/10/21 02:45:10;;;;;;;;;;;13.30;99.90;;;;;;4986654;28;20491;-40
2022/10/21 02:47:38;;;;;;;21.15;10.38;;;13.30;99.90;;;;;;4987953;28;19918;-41
2022/10/21 02:50:04;;;;;;;25.08;11.68;;;13.40;99.90;;;;;;4991459;28;20603;-42
2022/10/21 02:52:30;;;;;;;22.17;11.40;;;13.40;99.90;;;;;;4984627;28;20403;-42
2022/10/21 02:54:55;;;;;;;19.02;10.75;;;13.40;99.90;;;;;;4989604;28;20035;-43
2022/10/21 02:57:21;;;;;;;23.63;11.30;;;13.40;99.90;;;;;;4985978;28;20026;-47
2022/10/21 02:59:47;;;;;;;22.30;11.00;;;13.40;99.90;;;;;;4984850;28;20453;-42
2022/10/21 03:02:12;;;;;;;21.02;10.73;;;13.40;99.90;;;;;;4988789;28;20042;-40
2022/10/21 03:04:38;;;;;;;22.10;9.95;;;13.40;99.90;;;;;;4986809;28;20042;-41
2022/10/21 03:07:04;;;;;;;22.60;11.10;;;13.40;99.90;;;;;;4986432;28;20514;-40
2022/10/21 03:09:29;;;;;;;23.42;10.20;;;13.40;99.90;;;;;;4986298;28;20181;-41
2022/10/21 03:11:55;;;;;;;23.75;11.52;;;13.40;99.90;;;;;;4986815;28;20129;-40
2022/10/21 03:14:20;;;;;;;19.27;10.52;;;13.40;99.90;;;;;;4983993;28;20574;-43
2022/10/21 03:16:46;;;;;;;20.20;9.85;;;13.30;99.90;;;;;;4987082;28;20046;-43
2022/10/21 03:19:12;;;;;;;21.10;9.60;;;13.30;99.90;;;;;;4982781;28;20117;-45
2022/10/21 03:21:37;;;;;;;19.23;10.85;;;13.30;99.90;;;;;;4991080;28;20116;-40
2022/10/21 03:24:03;;;;;;;20.92;11.07;;;13.30;99.90;;;;;;4983874;28;20510;-41
2022/10/21 03:26:29;;;;;;;23.88;11.35;;;13.30;99.90;;;;;;4981523;28;20132;-40
2022/10/21 03:28:55;;;;;;;19.90;9.85;;;13.30;99.90;;;;;;4985529;28;20038;-40
2022/10/21 03:31:20;;;;;;;23.27;12.10;;;13.30;99.90;;;;;;4984050;28;20046;-40
2022/10/21 03:33:46;;;;;;;22.75;11.75;;;13.30;99.90;;;;;;4988069;28;20039;-44
2022/10/21 03:36:12;;;;;;;23.15;11.27;;;13.40;99.90;;;;;;4986969;28;20500;-40
2022/10/21 03:38:37;;;;;;;21.08;10.68;;;13.40;99.90;;;;;;4982560;28;20034;-41
2022/10/21 03:41:03;;;;;;;24.25;11.52;;;13.40;99.90;;;;;;4989639;28;20041;-41
2022/10/21 03:43:29;;;;;;;21.25;11.30;;;13.40;99.90;;;;;;4987176;28;20062;-43
2022/10/21 03:45:54;;;;;;;27.67;13.13;;;13.50;99.90;;;;;;4987100;28;20058;-39
2022/10/21 03:48:20;;;;;;;31.77;13.73;;;13.50;99.90;;;;;;4986673;28;20046;-40
2022/10/21 03:50:46;;;;;;;30.13;12.20;;;13.50;99.90;;;;;;4988448;28;20404;-40
2022/10/21 03:53:11;;;;;;;29.27;13.23;;;13.50;99.90;;;;;;4983080;28;20476;-41
2022/10/21 03:55:37;;;;;;;31.52;14.73;;;13.50;99.90;;;;;;4981738;28;20044;-41
2022/10/21 03:58:03;;;;;;;27.38;12.95;;;13.50;99.90;;;;;;4983281;28;20126;-41
2022/10/21 04:00:28;;;;;;;22.52;11.77;;;13.50;99.90;;;;;;4972883;28;20149;-42
2022/10/21 04:02:54;;;;;;;26.48;12.45;;;13.50;99.90;;;;;;4981761;28;20049;-39
2022/10/21 04:05:20;;;;;;;31.17;14.27;;;13.50;99.90;;;;;;4980610;28;20034;-41
2022/10/21 04:07:45;;;;;;;26.15;12.73;;;13.40;99.90;;;;;;4985549;28;20042;-43
2022/10/21 04:10:11;;;;;;;27.92;13.93;;;13.40;99.90;;;;;;4984097;28;20527;-42
2022/10/21 04:12:37;;;;;;;27.67;12.95;;;13.40;99.90;;;;;;4988356;28;20039;-43
2022/10/21 04:15:04;;;;;;;24.95;12.20;;;13.40;99.90;;;;;;4986527;28;20066;-40
2022/10/21 04:17:30;;;;;;;21.45;10.75;;;13.30;99.90;;;;;;4983349;28;20039;-43
2022/10/21 04:19:55;;;;;;;22.52;12.32;;;13.40;99.90;;;;;;4987043;28;20180;-44
2022/10/21 04:22:21;;;;;;;23.33;10.80;;;13.30;99.90;;;;;;4988115;28;20459;-41
2022/10/21 04:24:46;;;;;;;26.50;12.55;;;13.30;99.90;;;;;;4982901;28;20089;-42
2022/10/21 04:27:12;;;;;;;26.35;12.10;;;13.30;99.90;;;;;;4981531;28;20046;-42
2022/10/21 04:29:38;;;;;;;28.92;13.07;;;13.30;99.90;;;;;;4986821;28;20047;-43
2022/10/21 04:32:03;;;;;;;25.35;12.65;;;13.30;99.90;;;;;;4985868;28;20566;-42
2022/10/21 04:34:29;;;;;;;24.45;12.57;;;13.30;99.90;;;;;;4986375;28;20053;-43
2022/10/21 04:36:55;;;;;;;28.25;12.75;;;13.30;99.90;;;;;;4981088;28;20476;-44
2022/10/21 04:39:20;;;;;;;29.27;13.15;;;13.30;99.90;;;;;;4984149;28;20121;-41
2022/10/21 04:41:48;;;;;;;31.75;13.07;;;13.30;99.90;;;;;;4983256;28;20042;-43
2022/10/21 04:44:14;;;;;;;25.90;13.05;;;13.30;99.90;;;;;;4979595;28;20439;-40
2022/10/21 04:46:40;;;;;;;23.98;11.75;;;13.30;99.90;;;;;;4987121;28;20058;-43
2022/10/21 04:49:05;;;;;;;23.58;11.40;;;13.30;99.90;;;;;;4987520;28;20088;-42
2022/10/21 04:51:31;;;;;;;27.15;10.55;;;13.20;99.90;;;;;;4991887;28;20038;-41
2022/10/21 04:53:57;;;;;;;28.15;12.43;;;13.30;99.90;;;;;;4981062;28;20038;-41
2022/10/21 04:56:22;;;;;;;26.00;12.18;;;13.20;99.90;;;;;;4984980;28;20043;-42
2022/10/21 04:58:48;;;;;;;24.88;12.48;;;13.30;99.90;;;;;;4985597;28;20039;-43
2022/10/21 05:01:13;;;;;;;29.67;13.45;;;13.30;99.90;;;;;;4986049;28;20034;-43
2022/10/21 05:03:39;;;;;;;23.83;12.23;;;13.20;99.90;;;;;;4987042;28;20125;-41
2022/10/21 05:06:05;;;;;;;21.60;11.75;;;13.20;99.90;;;;;;4989133;28;20038;-40
2022/10/21 05:08:30;;;;;;;20.95;12.85;;;13.20;99.90;;;;;;4988067;28;20061;-41
2022/10/21 05:11:00;;;;;;;20.52;10.43;;;13.20;99.90;;;;;;4987875;28;20038;-42
2022/10/21 05:13:27;;;;;;;25.00;12.02;;;13.10;99.90;;;;;;4987711;28;20088;-41
2022/10/21 05:15:56;;;;;;;22.90;11.68;;;13.10;99.90;;;;;;4989096;28;20042;-42
2022/10/21 05:18:22;;;;;;;21.55;11.63;;;13.10;99.90;;;;;;4988219;28;20188;-44
2022/10/21 05:20:52;;;;;;;23.27;11.75;;;13.00;99.90;;;;;;4988602;28;20113;-41
2022/10/21 05:23:19;;;;;;;23.98;11.38;;;13.00;99.90;;;;;;4984292;28;20034;-43
2022/10/21 05:25:45;;;;;;;31.08;12.98;;;13.00;99.90;;;;;;4988212;28;20057;-39
2022/10/21 05:28:11;;;;;;;20.33;10.40;;;12.90;99.90;;;;;;4981185;28;20046;-42
2022/10/21 05:30:37;;;;;;;23.27;11.27;;;12.90;99.90;;;;;;4984316;28;20080;-40
2022/10/21 05:33:03;;;;;;;22.35;10.50;;;12.80;99.90;;;;;;4988839;28;20121;-41
2022/10/21 05:35:28;;;;;;;19.83;11.25;;;12.80;99.90;;;;;;4984379;28;20045;-39
2022/10/21 05:37:54;;;;;;;24.20;10.95;;;12.80;99.90;;;;;;4989742;28;20081;-41
2022/10/21 05:40:20;;;;;;;21.67;11.50;;;12.80;99.90;;;;;;4984732;28;20118;-40
2022/10/21 05:42:45;;;;;;;20.30;10.52;;;12.80;99.90;;;;;;4985889;28;20057;-42
2022/10/21 05:45:11;;;;;;;24.45;11.70;;;12.80;99.90;;;;;;4987169;28;20050;-42
2022/10/21 05:47:39;;;;;;;20.58;11.13;;;12.80;99.90;;;;;;4984491;28;20062;-42
2022/10/21 05:50:06;;;;;;;24.52;11.57;;;12.90;99.90;;;;;;4982206;28;20046;-42
2022/10/21 05:52:31;;;;;;;23.52;10.82;;;12.90;99.90;;;;;;4987936;28;20093;-41
2022/10/21 05:54:57;;;;;;;23.63;12.50;;;12.90;99.90;;;;;;4986420;28;20042;-41
2022/10/21 05:57:23;;;;;;;26.33;11.40;;;13.00;99.90;;;;;;4985269;28;20122;-43
2022/10/21 05:59:48;;;;;;;21.23;11.80;;;13.00;99.90;;;;;;4984752;28;20045;-43
2022/10/21 06:02:14;;;;;;;21.50;11.40;;;13.00;99.90;;;;;;4981132;28;20464;-42
2022/10/21 06:04:40;;;;;;;22.73;11.68;;;13.00;99.90;;;;;;4988283;28;20034;-46
2022/10/21 06:07:05;;;;;;;22.65;11.48;;;13.00;99.90;;;;;;4987043;28;20501;-45
2022/10/21 06:09:31;;;;;;;22.55;11.38;;;13.10;99.90;;;;;;4982309;28;20038;-44
2022/10/21 06:11:57;;;;;;;21.27;10.68;;;13.10;99.90;;;;;;4985361;28;20507;-42
2022/10/21 06:14:24;;;;;;;25.63;11.88;;;13.10;99.90;;;;;;4986761;28;20100;-46
2022/10/21 06:16:50;;;;;;;25.38;11.25;;;13.10;99.90;;;;;;4983892;28;20480;-43
2022/10/21 06:19:15;;;;;;;23.67;11.40;;;13.10;99.90;;;;;;4985420;28;20030;-42
2022/10/21 06:21:41;;;;;;;23.50;11.45;;;13.10;99.90;;;;;;4983159;28;20142;-42
2022/10/21 06:24:07;;;;;;;21.50;10.65;;;13.10;99.90;;;;;;4986255;28;20034;-42
2022/10/21 06:26:33;;;;;;;19.63;10.68;;;13.00;99.90;;;;;;4985317;28;20038;-45
2022/10/21 06:28:58;;;;;;;22.48;10.73;;;13.00;99.90;;;;;;4985707;28;20045;-45
2022/10/21 06:31:24;;;;;;;16.02;9.38;;;12.90;99.90;;;;;;4984062;28;20392;-42
2022/10/21 06:33:50;;;;;;;18.85;10.82;;;12.90;99.90;;;;;;4984256;28;20448;-41
2022/10/21 06:36:15;;;;;;;20.05;10.27;;;12.80;99.90;;;;;;4983762;28;20034;-42
2022/10/21 06:38:43;;;;;;;17.15;9.27;;;12.80;99.90;;;;;;4990544;28;20065;-39
2022/10/21 06:41:12;;;;;;;19.25;9.38;;;12.80;99.90;;;;;;4988322;28;20042;-40
2022/10/21 06:43:37;;;;;;;20.15;10.20;;;12.70;99.90;;;;;;4983648;28;20050;-42
2022/10/21 06:46:06;;;;;;;20.58;10.45;;;12.70;99.90;;;;;;4982973;28;20059;-40
2022/10/21 06:48:31;;;;;;;19.88;9.95;;;12.70;99.90;;;;;;4982564;28;20054;-40
2022/10/21 06:50:59;;;;;;;21.42;10.95;;;12.70;99.90;;;;;;4986251;28;20096;-42
2022/10/21 06:53:26;;;;;;;22.77;11.38;;;12.70;99.90;;;;;;4984596;28;20038;-44
2022/10/21 06:56:03;;;;;;;17.75;9.75;;;12.70;99.90;;;;;;4985599;28;20042;-40
2022/10/21 06:58:30;;;;;;;23.20;10.23;;;12.70;99.90;;;;;;4985104;28;20038;-40
2022/10/21 07:00:56;;;;;;;20.50;11.23;;;12.60;99.90;;;;;;4985870;28;20471;-43
2022/10/21 07:03:21;;;;;;;23.92;11.38;;;12.60;99.90;;;;;;4984124;28;20042;-39
2022/10/21 07:05:47;;;;;;;17.50;10.13;;;12.60;99.90;;;;;;4983164;28;20043;-42
2022/10/21 07:08:12;;;;;;;18.52;10.05;;;12.60;99.90;;;;;;4987430;28;20043;-41
2022/10/21 07:10:41;;;;;;;25.02;10.57;;;12.60;99.90;;;;;;4985942;28;20057;-43
2022/10/21 07:13:07;;;;;;;18.70;10.55;;;12.60;99.90;;;;;;4989007;28;20050;-41
2022/10/21 07:15:32;;;;;;;19.52;9.95;;;12.60;99.90;;;;;;4983548;28;20039;-43
2022/10/21 07:17:59;;;;;;;21.67;10.95;;;12.60;99.90;;;;;;4977102;28;20096;-42
2022/10/21 07:20:26;;;;;;;22.67;10.43;;;12.60;99.90;;;;;;4982126;28;20030;-47
2022/10/21 07:22:51;;;;;;;22.05;11.70;;;12.60;99.90;;;;;;4982249;28;20507;-45
2022/10/21 07:25:18;;;;;;;18.63;10.15;;;12.60;99.90;;;;;;4981775;28;20057;-45
2022/10/21 07:27:44;;;;;;;19.35;10.27;;;12.60;99.90;;;;;;4984167;28;20047;-42
2022/10/21 07:30:10;;;;;;;17.35;9.40;;;12.60;99.90;;;;;;4965285;28;20057;-44
2022/10/21 07:32:35;;;;;;;17.92;10.50;;;12.70;99.90;;;;;;4985495;28;20042;-43
2022/10/21 07:35:02;;;;;;;19.63;8.77;;;12.70;99.90;;;;;;4984782;28;20514;-43
2022/10/21 07:37:27;;;;;;;15.80;9.07;;;12.70;99.90;;;;;;4987437;28;20042;-42
2022/10/21 07:39:53;;;;;;;21.48;10.57;;;12.70;99.90;;;;;;4985522;28;20034;-46
2022/10/21 07:42:20;;;;;;;18.30;9.85;;;12.80;99.90;;;;;;4983009;28;20053;-44
2022/10/21 07:44:48;;;;;;;22.08;10.05;;;12.80;99.90;;;;;;4984953;28;20061;-43
2022/10/21 07:47:14;;;;;;;18.42;10.43;;;12.90;99.90;;;;;;4986183;28;20046;-43
2022/10/21 07:49:40;;;;;;;23.13;10.55;;;12.90;99.90;;;;;;4985427;28;20045;-43
2022/10/21 07:52:05;;;;;;;20.75;9.40;;;13.00;99.90;;;;;;4983628;28;20034;-44
2022/10/21 07:54:31;;;;;;;20.92;10.68;;;13.00;99.90;;;;;;4986657;28;20039;-42
2022/10/21 07:56:57;;;;;;;18.60;10.15;;;13.10;99.90;;;;;;4985167;28;20487;-43
2022/10/21 07:59:23;;;;;;;18.10;10.20;;;13.20;99.90;;;;;;4982451;28;20041;-46
2022/10/21 08:01:49;;;;;;;18.10;9.82;;;13.20;99.90;;;;;;4981822;28;20629;-46
2022/10/21 08:04:18;;;;;;;20.67;11.25;;;13.30;99.90;;;;;;4983115;28;20050;-43
2022/10/21 08:06:45;;;;;;;16.48;9.77;;;13.40;99.90;;;;;;4980707;28;20049;-43
2022/10/21 08:09:12;;;;;;;18.20;8.98;;;13.40;99.90;;;;;;4985393;28;20061;-41
2022/10/21 08:11:37;;;;;;;17.17;10.07;;;13.50;99.90;;;;;;4983247;28;20089;-46
2022/10/21 08:14:08;;;;;;;19.23;9.10;;;13.60;99.90;;;;;;4978386;28;20165;-44
2022/10/21 08:16:35;;;;;;;16.17;8.55;;;13.70;99.90;;;;;;4982129;28;20042;-44
2022/10/21 08:19:02;;;;;;;17.90;9.35;;;13.70;99.90;;;;;;4981277;28;20046;-41
2022/10/21 08:21:30;;;;;;;18.70;8.98;;;13.80;99.90;;;;;;4985920;28;20046;-42
2022/10/21 08:23:56;;;;;;;13.60;8.48;;;13.90;99.90;;;;;;4991706;28;20049;-42
2022/10/21 08:26:22;;;;;;;15.80;8.25;;;13.90;99.90;;;;;;4985334;28;20041;-41
2022/10/21 08:28:48;;;;;;;13.10;8.50;;;14.00;99.90;;;;;;4980296;28;20042;-45
2022/10/21 08:31:19;;;;;;;16.08;8.23;;;14.00;99.90;;;;;;4988106;28;20081;-42
2022/10/21 08:33:45;;;;;;;17.25;8.73;;;14.10;99.90;;;;;;4990002;28;20589;-42
2022/10/21 08:36:17;;;;;;;18.13;9.65;;;14.10;99.90;;;;;;4991316;28;20042;-41
2022/10/21 08:38:43;;;;;;;16.42;8.05;;;14.20;99.90;;;;;;4991301;28;20030;-40
2022/10/21 08:41:27;;;;;;;17.02;8.57;;;14.20;99.90;;;;;;4979613;28;20455;-41
2022/10/21 08:44:18;;;;;;;16.55;8.52;;;14.30;99.90;;;;;;4978824;28;20085;-43
2022/10/21 08:46:54;;;;;;;15.68;7.70;;;14.30;99.90;;;;;;4984710;28;20078;-43
2022/10/21 08:49:36;;;;;;;13.90;8.55;;;14.40;99.90;;;;;;4982958;28;20051;-40
2022/10/21 08:52:10;;;;;;;13.57;7.78;;;14.40;99.90;;;;;;4985654;28;20049;-40
2022/10/21 08:54:49;;;;;;;13.68;7.45;;;14.50;99.90;;;;;;4990889;28;20097;-42
2022/10/21 08:57:15;;;;;;;12.80;7.80;;;14.50;99.90;;;;;;4986615;28;20033;-41
2022/10/21 08:59:41;;;;;;;14.07;7.07;;;14.60;99.90;;;;;;4988249;28;20884;-42
2022/10/21 09:02:16;;;;;;;14.32;7.40;;;14.60;99.90;;;;;;4986135;28;20038;-41
2022/10/21 09:05:05;;;;;;;14.80;6.80;;;14.70;99.90;;;;;;4986277;28;20049;-40
2022/10/21 09:07:42;;;;;;;12.48;6.60;;;14.70;99.90;;;;;;4974317;28;20058;-40
2022/10/21 09:10:36;;;;;;;11.70;6.45;;;14.70;99.90;;;;;;4973616;28;20045;-40
2022/10/21 09:13:21;;;;;;;13.07;7.05;;;14.80;99.90;;;;;;4987771;28;20096;-40
2022/10/21 09:16:20;;;;;;;11.50;6.05;;;14.80;99.90;;;;;;4986113;28;20443;-41
2022/10/21 09:19:20;;;;;;;16.67;7.18;;;14.90;99.90;;;;;;4967522;28;20125;-42
2022/10/21 09:22:23;;;;;;;11.85;6.30;;;14.90;99.90;;;;;;4984596;28;21263;-40
2022/10/21 09:25:00;;;;;;;;;;;14.90;99.90;;;;;;4987984;28;20125;-40
2022/10/21 09:27:26;;;;;;;12.10;6.15;;;15.00;99.90;;;;;;4987285;28;19956;-42
2022/10/21 09:30:04;;;;;;;9.65;6.30;;;14.90;99.90;;;;;;4987957;28;20078;-40
2022/10/21 09:32:40;;;;;;;13.60;6.35;;;15.00;99.90;;;;;;4982897;28;20466;-43
2022/10/21 09:35:39;;;;;;;11.82;7.10;;;15.00;99.90;;;;;;4984115;28;20052;-43
2022/10/21 09:38:25;;;;;;;11.93;6.25;;;15.00;99.90;;;;;;4985923;28;20097;-42
2022/10/21 09:40:58;;;;;;;12.35;6.60;;;15.10;99.90;;;;;;4990753;28;20114;-40
2022/10/21 09:43:25;;;;;;;11.60;6.55;;;15.10;99.90;;;;;;4983268;28;20042;-40
2022/10/21 09:45:52;;;;;;;12.27;6.45;;;15.10;99.90;;;;;;4983003;28;20114;-41
2022/10/21 09:48:17;;;;;;;13.32;6.80;;;15.10;99.90;;;;;;4990900;28;20034;-43
2022/10/21 09:51:12;;;;;;;9.57;5.78;;;15.20;99.90;;;;;;4989184;28;20423;-44
2022/10/21 09:53:45;;;;;;;14.57;6.03;;;15.20;99.90;;;;;;4982263;28;20058;-41
2022/10/21 09:56:35;;;;;;;12.00;5.43;;;15.20;99.90;;;;;;4993120;28;20137;-42
2022/10/21 09:59:10;;;;;;;11.38;5.32;;;15.30;99.90;;;;;;4984979;28;20042;-43
2022/10/21 10:01:37;;;;;;;9.48;5.70;;;15.30;99.90;;;;;;4988454;28;20030;-40
2022/10/21 10:04:20;;;;;;;10.25;5.43;;;15.40;99.90;;;;;;4988107;28;20046;-40
2022/10/21 10:06:46;;;;;;;12.30;5.82;;;15.40;99.90;;;;;;4987662;28;20069;-40
2022/10/21 10:09:29;;;;;;;9.10;5.05;;;15.50;99.90;;;;;;4984585;28;20050;-43
2022/10/21 10:12:22;;;;;;;14.75;5.88;;;15.50;99.90;;;;;;4984613;28;20050;-42
2022/10/21 10:14:48;;;;;;;12.57;6.18;;;15.60;99.90;;;;;;4986492;28;20077;-42
2022/10/21 10:17:24;;;;;;;12.35;6.00;;;15.60;99.90;;;;;;4984597;28;20081;-40
2022/10/21 10:20:13;;;;;;;10.23;5.15;;;15.60;99.90;;;;;;4978036;28;20050;-40
2022/10/21 10:22:57;;;;;;;11.00;6.05;;;15.60;99.90;;;;;;4981479;28;20050;-49
2022/10/21 10:25:27;;;;;;;9.45;4.78;;;15.70;99.90;;;;;;4976728;28;20070;-41
2022/10/21 10:28:01;;;;;;;10.80;5.40;;;15.70;99.90;;;;;;4981180;28;20507;-45
2022/10/21 10:30:42;;;;;;;8.90;4.43;;;15.80;99.90;;;;;;4992012;28;20082;-43
2022/10/21 10:33:13;;;;;;;9.13;4.90;;;15.80;99.90;;;;;;4986358;28;20038;-43
2022/10/21 10:35:46;;;;;;;12.05;4.72;;;15.80;99.90;;;;;;4987745;28;20039;-38
2022/10/21 10:38:28;;;;;;;8.10;4.93;;;15.80;99.90;;;;;;4990746;28;20049;-39
2022/10/21 10:41:03;;;;;;;10.13;5.32;;;15.80;99.90;;;;;;4991759;28;20128;-40
2022/10/21 10:43:31;;;;;;;7.97;4.82;;;15.90;99.90;;;;;;4982460;28;20093;-38
2022/10/21 10:46:02;;;;;;;9.15;4.75;;;15.90;99.90;;;;;;4987028;28;20054;-39
2022/10/21 10:48:44;;;;;;;9.73;4.82;;;15.90;99.90;;;;;;4984775;28;20438;-40
2022/10/21 10:51:27;;;;;;;9.52;4.53;;;16.00;99.90;;;;;;4977283;28;20057;-42
2022/10/21 10:54:13;;;;;;;13.27;4.53;;;16.00;99.90;;;;;;4984882;28;20049;-42
2022/10/21 10:56:48;;;;;;;9.02;4.43;;;16.00;99.90;;;;;;4984861;28;20558;-41
2022/10/21 10:59:14;;;;;;;7.60;4.78;;;16.00;99.90;;;;;;4985942;28;20137;-46
2022/10/21 11:02:04;;;;;;;10.93;5.00;;;16.00;99.90;;;;;;4985814;28;20558;-42
2022/10/21 11:04:34;;;;;;;9.15;3.88;;;16.10;99.90;;;;;;4970652;28;20052;-43
2022/10/21 11:07:06;;;;;;;7.88;4.22;;;16.10;99.90;;;;;;4982323;28;20385;-56
2022/10/21 11:09:33;;;;;;;7.68;3.80;;;16.20;99.90;;;;;;4987863;28;20114;-40
2022/10/21 11:12:04;;;;;;;8.75;4.40;;;16.20;99.90;;;;;;4983029;28;20121;-41
2022/10/21 11:14:30;;;;;;;9.00;4.05;;;16.20;99.90;;;;;;4987350;28;20490;-44
2022/10/21 11:17:09;;;;;;;8.40;4.60;;;16.20;99.90;;;;;;4983385;28;20034;-41
2022/10/21 11:19:53;;;;;;;8.55;3.55;;;16.30;99.90;;;;;;4986864;28;20386;-41
2022/10/21 11:22:41;;;;;;;8.70;3.90;;;16.30;99.90;;;;;;4986819;28;20534;-41
2022/10/21 11:25:33;;;;;;;7.43;3.97;;;16.30;99.90;;;;;;4987167;28;20042;-41
2022/10/21 11:28:08;;;;;;;7.97;4.17;;;16.40;99.90;;;;;;4976954;28;20042;-40
2022/10/21 11:30:42;;;;;;;6.82;4.03;;;16.40;99.90;;;;;;4987885;28;20053;-41
2022/10/21 11:33:29;;;;;;;8.45;3.58;;;16.40;99.90;;;;;;4987735;28;20074;-41
2022/10/21 11:36:09;;;;;;;8.63;4.15;;;16.40;99.90;;;;;;4982770;28;20046;-40
2022/10/21 11:38:57;;;;;;;9.32;3.75;;;16.50;99.90;;;;;;4986245;28;20403;-40
2022/10/21 11:41:59;;;;;;;6.28;3.50;;;16.50;99.90;;;;;;4986965;28;20046;-42
2022/10/21 11:44:53;;;;;;;8.23;3.97;;;16.50;99.90;;;;;;4976259;28;20065;-42
2022/10/21 11:47:23;;;;;;;7.85;4.05;;;16.50;99.90;;;;;;4983359;28;20064;-40
2022/10/21 11:50:07;;;;;;;6.00;3.17;;;16.50;99.90;;;;;;4984853;28;20074;-41
2022/10/21 11:52:45;;;;;;;9.98;4.55;;;16.50;99.90;;;;;;4984237;28;20045;-40
2022/10/21 11:55:37;;;;;;;5.80;3.70;;;16.50;99.90;;;;;;4987207;28;20042;-40
2022/10/21 11:58:25;;;;;;;8.13;3.70;;;16.50;99.90;;;;;;4987410;28;20045;-41
2022/10/21 12:01:06;;;;;;;11.40;4.97;;;16.60;99.90;;;;;;4983486;28;20038;-42
2022/10/21 12:03:57;;;;;;;7.57;3.88;;;16.60;99.90;;;;;;4981146;28;20512;-40
2022/10/21 12:06:41;;;;;;;7.70;4.32;;;16.70;99.90;;;;;;4978254;28;20133;-40
2022/10/21 12:09:23;;;;;;;11.32;4.05;;;16.70;99.90;;;;;;4986136;28;20101;-41
2022/10/21 12:11:55;;;;;;;7.25;4.05;;;16.70;99.90;;;;;;4982245;28;20490;-40
2022/10/21 12:14:32;;;;;;;8.93;4.28;;;16.70;99.90;;;;;;4980188;28;20045;-41
2022/10/21 12:17:00;;;;;;;12.60;4.45;;;16.60;99.90;;;;;;4983557;28;20579;-40
2022/10/21 12:19:26;;;;;;;6.88;3.90;;;16.60;99.90;;;;;;4982817;28;20038;-41
2022/10/21 12:21:52;;;;;;;9.77;4.15;;;16.60;99.90;;;;;;4985645;28;20116;-41
2022/10/21 12:24:24;;;;;;;8.73;4.35;;;16.60;99.90;;;;;;4979190;28;20136;-41
2022/10/21 12:27:15;;;;;;;9.88;4.30;;;16.60;99.90;;;;;;4981956;28;20192;-40
2022/10/21 12:30:04;;;;;;;7.20;4.30;;;16.60;99.90;;;;;;4986245;28;20046;-40
2022/10/21 12:32:42;;;;;;;10.23;4.10;;;16.60;99.90;;;;;;4987038;28;20045;-40
2022/10/21 12:35:13;;;;;;;7.13;3.63;;;16.60;99.90;;;;;;4987881;28;20124;-41
2022/10/21 12:38:04;;;;;;;10.13;4.53;;;16.80;99.90;;;;;;4982684;28;20555;-40
2022/10/21 12:40:31;;;;;;;12.10;4.72;;;16.90;99.90;;;;;;4979430;28;20042;-41
2022/10/21 12:43:05;;;;;;;9.85;3.92;;;17.10;99.90;;;;;;4987090;28;20058;-40
2022/10/21 12:45:34;;;;;;;6.70;3.83;;;17.30;99.90;;;;;;4981400;28;20058;-40
2022/10/21 12:48:04;;;;;;;12.48;3.85;;;17.70;99.90;;;;;;4987939;28;20043;-40
2022/10/21 12:50:32;;;;;;;6.97;4.15;;;17.90;99.90;;;;;;4987452;28;20587;-40
2022/10/21 12:53:13;;;;;;;5.25;3.63;;;18.00;99.90;;;;;;4984643;28;20050;-40